METAR Formatted Surface Weather Observation
Issued by NWS

Home | Current Version | Previous Version | Text Only | Print | Product List | Glossary On
Versions: 1 2 3 4 5 6 7 8 9 10 11 12 13 14 15 16 17 18 19 20 21 22 23 24
000
SAUS45 KPSR 210157
MTRFHU
METAR KFHU 210156Z AUTO 26008KT 10SM -RA FEW085 BKN110 21/17 A3008
RMK AO2 CIG 080 WEST SLP134 P0001 T02060172 $



USA.gov is the U.S. government's official web portal to all federal, state and local government web resources and services.